Time;durP1;ratioP1;P1;durP2;ratioP2;P2;SDS_P1;SDS_P2;PMS_P1;PMS_P2;Temp;Humidity;BMP_temperature;BMP_pressure;BME280_temperature;BME280_humidity;BME280_pressure;Samples;Min_cycle;Max_cycle;Signal;HPM_P1;HPM_P2
2024/03/08 00:00:12;;;;;;;21.10;15.10;;;9.30;78.70;;;;;;4973446;28;20031;-80
2024/03/08 00:02:39;;;;;;;18.60;14.07;;;9.30;78.60;;;;;;4971981;28;20026;-79
2024/03/08 00:05:07;;;;;;;19.17;14.85;;;9.20;78.60;;;;;;4975081;28;20026;-80
2024/03/08 00:07:33;;;;;;;17.67;14.20;;;9.20;78.70;;;;;;4985242;28;20567;-80
2024/03/08 00:09:59;;;;;;;19.38;14.38;;;9.20;78.60;;;;;;4985047;28;20069;-80
2024/03/08 00:12:26;;;;;;;19.70;15.02;;;9.20;78.70;;;;;;4973672;28;20026;-79
2024/03/08 00:14:54;;;;;;;16.88;13.43;;;9.20;78.60;;;;;;4961539;28;20081;-79
2024/03/08 00:17:22;;;;;;;19.13;14.75;;;9.10;78.60;;;;;;4978530;28;20097;-91
2024/03/08 00:19:50;;;;;;;19.38;14.32;;;9.10;78.60;;;;;;4981523;28;20023;-90
2024/03/08 00:22:17;;;;;;;20.75;14.63;;;9.10;78.60;;;;;;4997411;28;20429;-80
2024/03/08 00:24:43;;;;;;;18.65;14.52;;;9.10;78.60;;;;;;4976796;28;20367;-79
2024/03/08 00:27:11;;;;;;;20.30;14.43;;;9.10;78.60;;;;;;4993375;28;20614;-79
2024/03/08 00:29:38;;;;;;;20.60;14.90;;;9.00;78.60;;;;;;4953704;28;20092;-79
2024/03/08 00:32:04;;;;;;;17.45;13.73;;;9.00;78.60;;;;;;4994236;28;20128;-80
2024/03/08 00:34:31;;;;;;;17.92;13.88;;;9.00;78.60;;;;;;4961394;28;20419;-80
2024/03/08 00:36:58;;;;;;;19.10;14.73;;;9.00;78.60;;;;;;4994639;28;20026;-80
2024/03/08 00:39:25;;;;;;;19.20;15.57;;;8.90;78.60;;;;;;4995574;28;20479;-79
2024/03/08 00:41:51;;;;;;;17.50;13.75;;;8.90;78.60;;;;;;4976559;28;20019;-88
2024/03/08 00:44:17;;;;;;;17.90;13.85;;;8.90;78.60;;;;;;4996256;28;20033;-89
2024/03/08 00:46:43;;;;;;;18.27;14.60;;;8.90;78.60;;;;;;4960234;28;20045;-89
2024/03/08 00:49:12;;;;;;;19.85;14.60;;;8.90;78.60;;;;;;4992484;28;20027;-91
2024/03/08 00:51:38;;;;;;;20.40;14.93;;;8.80;78.60;;;;;;4976156;28;20371;-79
2024/03/08 00:54:04;;;;;;;21.27;15.15;;;8.80;78.60;;;;;;4994516;28;20040;-88
2024/03/08 00:56:30;;;;;;;18.15;14.23;;;8.80;78.60;;;;;;4962977;28;20030;-91
2024/03/08 00:58:55;;;;;;;19.48;14.63;;;8.80;78.60;;;;;;4995775;28;20031;-91
2024/03/08 01:01:22;;;;;;;18.63;14.75;;;8.80;78.60;;;;;;4955777;28;20073;-88
2024/03/08 01:03:48;;;;;;;18.85;13.85;;;8.70;78.60;;;;;;4994043;28;20050;-88
2024/03/08 01:06:14;;;;;;;18.10;14.80;;;8.70;78.50;;;;;;4973009;28;20109;-89
2024/03/08 01:08:42;;;;;;;17.65;13.60;;;8.70;78.60;;;;;;4961513;28;20289;-81
2024/03/08 01:11:11;;;;;;;19.45;14.80;;;8.70;78.60;;;;;;4976809;28;20057;-90
2024/03/08 01:13:37;;;;;;;17.40;13.35;;;8.70;78.60;;;;;;4977070;28;20084;-90
2024/03/08 01:16:03;;;;;;;18.85;14.30;;;8.70;78.60;;;;;;4975065;28;20038;-80
2024/03/08 01:18:29;;;;;;;17.13;13.80;;;8.60;78.50;;;;;;4975670;28;20018;-79
2024/03/08 01:20:55;;;;;;;18.50;15.20;;;8.60;78.60;;;;;;4991840;28;20096;-88
2024/03/08 01:23:21;;;;;;;17.73;13.98;;;8.60;78.60;;;;;;4972616;28;20030;-78
2024/03/08 01:25:51;;;;;;;19.40;14.88;;;8.60;78.60;;;;;;4991812;28;20454;-80
2024/03/08 01:28:17;;;;;;;19.52;14.90;;;8.60;78.60;;;;;;4977452;28;20018;-88
2024/03/08 01:30:44;;;;;;;17.63;13.98;;;8.60;78.60;;;;;;4972411;28;20122;-79
2024/03/08 01:33:10;;;;;;;17.20;14.13;;;8.50;78.50;;;;;;4988106;28;20026;-88
2024/03/08 01:35:36;;;;;;;17.65;13.70;;;8.50;78.50;;;;;;4961290;28;20097;-90
2024/03/08 01:38:04;;;;;;;18.85;14.70;;;8.50;78.50;;;;;;4995263;28;20509;-79
2024/03/08 01:40:30;;;;;;;16.77;14.18;;;8.50;78.60;;;;;;4974816;28;20034;-79
2024/03/08 01:42:56;;;;;;;18.73;14.75;;;8.50;78.60;;;;;;4977796;28;19999;-90
2024/03/08 01:45:24;;;;;;;19.55;14.82;;;8.40;78.50;;;;;;4958725;28;20046;-88
2024/03/08 01:47:51;;;;;;;20.08;15.80;;;8.40;78.50;;;;;;4981536;28;20102;-88
2024/03/08 01:50:17;;;;;;;18.50;14.70;;;8.40;78.50;;;;;;4992171;28;20366;-80
2024/03/08 01:52:43;;;;;;;19.52;14.98;;;8.40;78.60;;;;;;4975906;28;20445;-87
2024/03/08 01:55:14;;;;;;;17.10;14.15;;;8.40;78.60;;;;;;4998751;28;20089;-90
2024/03/08 01:57:45;;;;;;;18.20;14.93;;;8.30;78.70;;;;;;4992232;28;20027;-92
2024/03/08 02:00:11;;;;;;;18.58;15.10;;;8.30;78.60;;;;;;4992985;28;20117;-80
2024/03/08 02:02:37;;;;;;;20.00;15.88;;;8.30;78.60;;;;;;4994801;28;20037;-91
2024/03/08 02:05:04;;;;;;;18.58;14.90;;;8.30;78.60;;;;;;4975918;28;20043;-91
2024/03/08 02:07:31;;;;;;;19.52;14.90;;;8.30;78.60;;;;;;4972585;28;20045;-80
2024/03/08 02:09:57;;;;;;;19.58;15.85;;;8.20;78.60;;;;;;4991408;28;20064;-80
2024/03/08 02:12:23;;;;;;;19.73;15.70;;;8.20;78.60;;;;;;4990870;28;20031;-88
2024/03/08 02:14:49;;;;;;;17.60;14.63;;;8.20;78.60;;;;;;4991316;28;20033;-80
2024/03/08 02:17:14;;;;;;;19.80;15.90;;;8.20;78.60;;;;;;4991459;28;20026;-90
2024/03/08 02:19:40;;;;;;;19.77;14.63;;;8.20;78.60;;;;;;4992819;28;20026;-88
2024/03/08 02:22:06;;;;;;;18.77;14.82;;;8.20;78.70;;;;;;4972716;28;20140;-90
2024/03/08 02:24:33;;;;;;;18.85;15.05;;;8.20;78.70;;;;;;4952434;28;20042;-79
2024/03/08 02:26:59;;;;;;;20.38;16.23;;;8.10;78.70;;;;;;4976335;28;20372;-88
2024/03/08 02:29:25;;;;;;;19.10;15.80;;;8.10;78.70;;;;;;4974931;28;20061;-80
2024/03/08 02:31:51;;;;;;;18.92;15.70;;;8.10;78.70;;;;;;4970463;28;20500;-88
2024/03/08 02:34:17;;;;;;;19.17;15.77;;;8.00;78.60;;;;;;4990175;28;20022;-80
2024/03/08 02:36:43;;;;;;;20.45;16.23;;;8.00;78.60;;;;;;4972786;28;20013;-88
2024/03/08 02:39:10;;;;;;;20.38;15.82;;;8.00;78.70;;;;;;4974395;28;20065;-80
2024/03/08 02:41:36;;;;;;;19.52;16.17;;;8.00;78.70;;;;;;4991947;28;20070;-80
2024/03/08 02:44:03;;;;;;;19.45;15.98;;;8.00;78.70;;;;;;4988268;28;20049;-80
2024/03/08 02:46:30;;;;;;;19.33;15.80;;;8.00;78.70;;;;;;4956228;28;20113;-89
2024/03/08 02:48:56;;;;;;;19.55;15.95;;;8.00;78.70;;;;;;4968460;28;20022;-91
2024/03/08 02:51:22;;;;;;;20.77;16.77;;;7.90;78.60;;;;;;4974241;28;20034;-80
2024/03/08 02:53:51;;;;;;;19.05;15.55;;;7.90;78.70;;;;;;4990207;28;20027;-79
2024/03/08 02:56:17;;;;;;;18.42;14.82;;;7.90;78.70;;;;;;4977141;28;20027;-80
2024/03/08 02:58:48;;;;;;;20.83;15.50;;;7.90;78.70;;;;;;4974912;28;20484;-79
2024/03/08 03:01:15;;;;;;;19.65;15.35;;;7.90;78.70;;;;;;4948294;28;20070;-91
2024/03/08 03:03:42;;;;;;;18.63;15.63;;;7.80;78.60;;;;;;4989302;28;20036;-88
2024/03/08 03:06:09;;;;;;;18.70;16.02;;;7.80;78.60;;;;;;4969295;28;20057;-88
2024/03/08 03:08:35;;;;;;;21.27;16.75;;;7.80;78.70;;;;;;4974870;28;20025;-80
2024/03/08 03:11:01;;;;;;;20.42;16.25;;;7.80;78.70;;;;;;4989746;28;20490;-88
2024/03/08 03:13:29;;;;;;;19.55;16.05;;;7.80;78.70;;;;;;4994058;28;20022;-89
2024/03/08 03:15:57;;;;;;;19.50;16.60;;;7.70;78.60;;;;;;4992584;28;20032;-80
2024/03/08 03:18:23;;;;;;;18.85;15.60;;;7.70;78.70;;;;;;4993476;28;20053;-88
2024/03/08 03:20:49;;;;;;;18.48;15.73;;;7.70;78.70;;;;;;4972932;28;20026;-80
2024/03/08 03:23:20;;;;;;;19.10;15.50;;;7.70;78.70;;;;;;4991261;28;20034;-80
2024/03/08 03:25:46;;;;;;;20.13;16.52;;;7.70;78.70;;;;;;4986050;28;20522;-88
2024/03/08 03:28:17;;;;;;;20.67;17.17;;;7.60;78.70;;;;;;4975301;28;20027;-91
2024/03/08 03:30:47;;;;;;;19.10;15.63;;;7.70;78.70;;;;;;4971881;28;20070;-79
2024/03/08 03:33:14;;;;;;;19.48;16.20;;;7.60;78.70;;;;;;4987571;28;20129;-79
2024/03/08 03:35:41;;;;;;;20.60;16.77;;;7.60;78.70;;;;;;4961044;28;20019;-87
2024/03/08 03:38:07;;;;;;;18.73;15.07;;;7.60;78.70;;;;;;4975236;28;20030;-90
2024/03/08 03:40:35;;;;;;;21.08;16.52;;;7.60;78.70;;;;;;4988416;28;20478;-88
2024/03/08 03:43:02;;;;;;;20.80;17.23;;;7.60;78.70;;;;;;4982318;28;20034;-79
2024/03/08 03:45:29;;;;;;;20.77;16.70;;;7.60;78.70;;;;;;4973371;28;20034;-92
2024/03/08 03:48:00;;;;;;;21.25;16.83;;;7.50;78.70;;;;;;4967037;28;20034;-80
2024/03/08 03:50:26;;;;;;;19.77;16.88;;;7.50;78.70;;;;;;4991289;28;20030;-80
2024/03/08 03:52:52;;;;;;;21.63;16.65;;;7.50;78.70;;;;;;4975581;28;20033;-78
2024/03/08 03:55:19;;;;;;;21.95;16.58;;;7.50;78.70;;;;;;4959678;28;20034;-89
2024/03/08 03:57:45;;;;;;;21.55;17.20;;;7.40;78.60;;;;;;4988497;28;20165;-79
2024/03/08 04:00:12;;;;;;;20.52;17.02;;;7.40;78.60;;;;;;4964338;28;20538;-80
2024/03/08 04:02:41;;;;;;;21.60;16.65;;;7.40;78.60;;;;;;4996362;28;20561;-80
2024/03/08 04:05:09;;;;;;;21.73;17.42;;;7.40;78.60;;;;;;4994778;28;20038;-90
2024/03/08 04:07:35;;;;;;;21.83;17.38;;;7.40;78.60;;;;;;4957190;28;20034;-87
2024/03/08 04:10:06;;;;;;;21.52;17.13;;;7.40;78.60;;;;;;4989961;28;20138;-79
2024/03/08 04:12:52;;;;;;;19.27;16.08;;;7.40;78.60;;;;;;4980052;28;20026;-89
2024/03/08 04:15:20;;;;;;;19.30;16.75;;;7.30;78.60;;;;;;4953500;28;20034;-78
2024/03/08 04:17:46;;;;;;;19.63;17.05;;;7.30;78.70;;;;;;4993443;28;20019;-79
2024/03/08 04:20:14;;;;;;;19.20;16.52;;;7.30;78.70;;;;;;4979801;28;20037;-88
2024/03/08 04:22:40;;;;;;;19.63;16.95;;;7.30;78.70;;;;;;4995081;28;20050;-87
2024/03/08 04:25:07;;;;;;;19.55;16.67;;;7.30;78.70;;;;;;4992132;28;20034;-79
2024/03/08 04:27:33;;;;;;;20.85;17.00;;;7.30;78.70;;;;;;4960695;28;20033;-89
2024/03/08 04:29:59;;;;;;;21.92;17.58;;;7.30;78.70;;;;;;4960515;28;20050;-87
2024/03/08 04:32:25;;;;;;;21.65;17.23;;;7.20;78.60;;;;;;4995044;28;20494;-89
2024/03/08 04:34:51;;;;;;;20.30;17.17;;;7.20;78.60;;;;;;4986607;28;20153;-78
2024/03/08 04:37:24;;;;;;;21.08;17.27;;;7.20;78.70;;;;;;4974351;28;20031;-86
2024/03/08 04:39:50;;;;;;;21.35;16.90;;;7.20;78.70;;;;;;4976900;28;20027;-87
2024/03/08 04:42:18;;;;;;;19.95;16.15;;;7.20;78.70;;;;;;4977850;28;20081;-78
2024/03/08 04:44:44;;;;;;;21.50;16.95;;;7.10;78.60;;;;;;4967217;28;20411;-79
2024/03/08 04:47:10;;;;;;;21.13;17.83;;;7.10;78.60;;;;;;4993526;28;20030;-79
2024/03/08 04:49:36;;;;;;;19.65;16.27;;;7.10;78.60;;;;;;4974899;28;20026;-87
2024/03/08 04:52:06;;;;;;;21.55;17.02;;;7.10;78.60;;;;;;4976933;28;20406;-87
2024/03/08 04:54:32;;;;;;;21.23;16.85;;;7.10;78.60;;;;;;4976509;28;20030;-89
2024/03/08 04:57:01;;;;;;;20.42;16.58;;;7.10;78.60;;;;;;4994449;28;20034;-78
2024/03/08 04:59:27;;;;;;;21.73;17.77;;;7.10;78.60;;;;;;4977494;28;20069;-88
2024/03/08 05:01:53;;;;;;;22.45;16.30;;;7.10;78.70;;;;;;4971943;28;20026;-88
2024/03/08 05:04:19;;;;;;;20.38;16.75;;;7.00;78.60;;;;;;4989369;28;20037;-89
2024/03/08 05:06:45;;;;;;;19.55;16.33;;;7.00;78.60;;;;;;4977064;28;20494;-88
2024/03/08 05:09:13;;;;;;;21.23;17.20;;;7.00;78.60;;;;;;4957998;28;20037;-78
2024/03/08 05:11:46;;;;;;;21.20;16.63;;;7.00;78.70;;;;;;4995966;28;20049;-87
2024/03/08 05:14:20;;;;;;;20.85;16.77;;;7.00;78.70;;;;;;4980830;28;20053;-87
2024/03/08 05:16:49;;;;;;;21.00;17.13;;;6.90;78.60;;;;;;4960901;28;20564;-79
2024/03/08 05:19:19;;;;;;;19.23;15.38;;;6.90;78.60;;;;;;4982280;28;20023;-81
2024/03/08 05:21:46;;;;;;;21.70;16.90;;;6.90;78.70;;;;;;4992767;28;20026;-87
2024/03/08 05:24:13;;;;;;;20.27;16.38;;;6.90;78.70;;;;;;4958728;28;20066;-79
2024/03/08 05:26:40;;;;;;;19.55;15.82;;;6.90;78.70;;;;;;4989759;28;20029;-88
2024/03/08 05:29:06;;;;;;;20.88;16.75;;;6.90;78.70;;;;;;4975414;28;20053;-79
2024/03/08 05:31:57;;;;;;;19.67;16.40;;;6.90;78.70;;;;;;4973166;28;20080;-87
2024/03/08 05:34:24;;;;;;;21.15;16.95;;;6.90;78.70;;;;;;4988180;28;20030;-81
2024/03/08 05:36:50;;;;;;;21.25;17.48;;;6.80;78.60;;;;;;4976146;28;20146;-87
2024/03/08 05:39:17;;;;;;;20.63;16.63;;;6.80;78.60;;;;;;4991885;28;20113;-80
2024/03/08 05:41:43;;;;;;;23.10;18.00;;;6.80;78.60;;;;;;4990078;28;20038;-89
2024/03/08 05:44:10;;;;;;;20.50;16.52;;;6.80;78.70;;;;;;4975972;28;20030;-80
2024/03/08 05:46:37;;;;;;;20.23;16.73;;;6.80;78.60;;;;;;4973805;28;20014;-90
2024/03/08 05:49:06;;;;;;;21.40;16.92;;;6.80;78.70;;;;;;4953868;28;20663;-91
2024/03/08 05:51:34;;;;;;;20.55;16.88;;;6.70;78.60;;;;;;4989819;28;20037;-80
2024/03/08 05:54:05;;;;;;;21.17;16.45;;;6.70;78.60;;;;;;4972946;28;20034;-80
2024/03/08 05:56:36;;;;;;;20.00;16.30;;;6.70;78.60;;;;;;4992731;28;20038;-90
2024/03/08 05:59:02;;;;;;;20.10;15.65;;;6.70;78.60;;;;;;4992336;28;20117;-80
2024/03/08 06:01:29;;;;;;;19.90;16.35;;;6.70;78.60;;;;;;4971825;28;20113;-85
2024/03/08 06:03:56;;;;;;;20.98;16.02;;;6.70;78.60;;;;;;4991668;28;20023;-81
2024/03/08 06:06:23;;;;;;;19.40;15.52;;;6.70;78.60;;;;;;4973843;28;20038;-89
2024/03/08 06:08:50;;;;;;;22.55;17.60;;;6.70;78.60;;;;;;4991996;28;20022;-91
2024/03/08 06:11:18;;;;;;;20.52;16.45;;;6.70;78.60;;;;;;4991378;28;20029;-90
2024/03/08 06:13:47;;;;;;;20.30;17.00;;;6.60;78.60;;;;;;4989735;28;20221;-80
2024/03/08 06:16:16;;;;;;;20.95;17.05;;;6.60;78.60;;;;;;4970910;28;20043;-80
2024/03/08 06:18:42;;;;;;;20.63;16.52;;;6.60;78.60;;;;;;4972491;28;20097;-90
2024/03/08 06:21:11;;;;;;;20.75;16.77;;;6.60;78.60;;;;;;4972599;28;20178;-81
2024/03/08 06:23:38;;;;;;;20.65;16.13;;;6.60;78.60;;;;;;4963370;28;20494;-79
2024/03/08 06:26:07;;;;;;;19.98;16.02;;;6.60;78.70;;;;;;4995976;28;20033;-81
2024/03/08 06:28:34;;;;;;;23.52;18.08;;;6.60;78.60;;;;;;4995145;28;20058;-84
2024/03/08 06:31:01;;;;;;;21.00;16.98;;;6.50;78.60;;;;;;4990789;28;20035;-80
2024/03/08 06:33:28;;;;;;;20.17;16.85;;;6.50;78.60;;;;;;4971472;28;20038;-90
2024/03/08 06:35:57;;;;;;;19.83;15.85;;;6.50;78.60;;;;;;4975564;28;20057;-89
2024/03/08 06:38:26;;;;;;;22.23;17.23;;;6.50;78.60;;;;;;4992061;28;20030;-88
2024/03/08 06:40:55;;;;;;;20.58;16.05;;;6.50;78.60;;;;;;4986169;28;20069;-92
2024/03/08 06:43:21;;;;;;;20.10;16.33;;;6.50;78.60;;;;;;4977111;28;20063;-81
2024/03/08 06:45:50;;;;;;;23.67;17.80;;;6.50;78.60;;;;;;4975850;28;20026;-80
2024/03/08 06:48:17;;;;;;;19.25;16.15;;;6.50;78.60;;;;;;4988673;28;20026;-81
2024/03/08 06:50:44;;;;;;;20.77;16.65;;;6.50;78.60;;;;;;4979532;28;20026;-91
2024/03/08 06:53:12;;;;;;;22.10;17.25;;;6.50;78.60;;;;;;4976762;28;20101;-80
2024/03/08 06:55:38;;;;;;;21.10;17.08;;;6.40;78.50;;;;;;4989886;28;20022;-88
2024/03/08 06:58:04;;;;;;;21.67;17.58;;;6.40;78.60;;;;;;4972432;28;20038;-80
2024/03/08 07:00:30;;;;;;;21.88;16.80;;;6.40;78.60;;;;;;4975754;28;20080;-79
2024/03/08 07:03:00;;;;;;;21.38;17.23;;;6.40;78.60;;;;;;4975537;28;20057;-79
2024/03/08 07:05:30;;;;;;;22.17;16.70;;;6.40;78.60;;;;;;4972749;28;20026;-79
2024/03/08 07:07:56;;;;;;;21.65;16.42;;;6.40;78.60;;;;;;4974618;28;20574;-79
2024/03/08 07:10:25;;;;;;;21.48;17.50;;;6.40;78.60;;;;;;4989642;28;20114;-92
2024/03/08 07:12:51;;;;;;;21.33;17.00;;;6.40;78.60;;;;;;4972777;28;20045;-80
2024/03/08 07:15:19;;;;;;;20.95;17.15;;;6.40;78.60;;;;;;4957221;28;20103;-79
2024/03/08 07:17:46;;;;;;;21.75;17.50;;;6.40;78.60;;;;;;4991372;28;20030;-89
2024/03/08 07:20:19;;;;;;;21.90;17.25;;;6.40;78.60;;;;;;4975987;28;20259;-92
2024/03/08 07:22:50;;;;;;;22.05;17.27;;;6.40;78.60;;;;;;4989681;28;20026;-91
2024/03/08 07:25:20;;;;;;;21.90;16.30;;;6.40;78.60;;;;;;4974889;28;20451;-90
2024/03/08 07:27:51;;;;;;;23.10;17.33;;;6.40;78.60;;;;;;4990934;28;20029;-80
2024/03/08 07:33:02;;;;;;;22.60;16.85;;;6.30;78.50;;;;;;4984532;28;20045;-92
2024/03/08 07:35:28;;;;;;;21.63;17.42;;;6.30;78.50;;;;;;4959192;28;20054;-80
2024/03/08 07:37:55;;;;;;;21.75;16.95;;;6.40;78.70;;;;;;4990481;28;20054;-91
2024/03/08 07:40:24;;;;;;;21.90;17.15;;;6.30;78.50;;;;;;4989006;28;20026;-79
2024/03/08 07:42:51;;;;;;;21.98;17.45;;;6.30;78.50;;;;;;4974533;28;20069;-80
2024/03/08 07:45:17;;;;;;;23.02;17.70;;;6.30;78.50;;;;;;4972467;28;20031;-92
2024/03/08 07:47:43;;;;;;;21.65;17.30;;;6.30;78.50;;;;;;4972649;28;20398;-79
2024/03/08 07:50:09;;;;;;;23.00;17.42;;;6.30;78.50;;;;;;4987922;28;20390;-79
2024/03/08 07:52:36;;;;;;;22.67;17.52;;;6.30;78.50;;;;;;4971223;28;20033;-80
2024/03/08 07:55:03;;;;;;;21.60;17.55;;;6.40;78.60;;;;;;4958164;28;20378;-92
2024/03/08 07:57:29;;;;;;;22.48;17.55;;;6.30;78.50;;;;;;4974369;28;20034;-92
2024/03/08 07:59:56;;;;;;;22.00;17.40;;;6.30;78.50;;;;;;4989922;28;20034;-91
2024/03/08 08:02:22;;;;;;;22.30;18.02;;;6.40;78.60;;;;;;4973569;28;20034;-80
2024/03/08 08:04:51;;;;;;;20.80;17.38;;;6.30;78.60;;;;;;4994973;28;20097;-91
2024/03/08 08:07:17;;;;;;;23.55;17.60;;;6.30;78.50;;;;;;4991759;28;20030;-80
2024/03/08 08:09:42;;;;;;;21.92;18.02;;;6.30;78.50;;;;;;4987662;28;20033;-90
2024/03/08 08:12:11;;;;;;;22.73;18.20;;;6.30;78.50;;;;;;4974404;28;20034;-79
2024/03/08 08:14:41;;;;;;;22.60;18.50;;;6.40;78.60;;;;;;4990291;28;20023;-93
2024/03/08 08:17:08;;;;;;;23.13;18.42;;;6.40;78.50;;;;;;4974344;28;20044;-80
2024/03/08 08:19:38;;;;;;;22.88;18.50;;;6.30;78.50;;;;;;4974307;28;20117;-91
2024/03/08 08:22:04;;;;;;;21.20;17.15;;;6.40;78.60;;;;;;4968427;28;20224;-91
2024/03/08 08:24:30;;;;;;;22.95;18.33;;;6.40;78.60;;;;;;4972775;28;20038;-80
2024/03/08 08:26:59;;;;;;;23.92;18.58;;;6.40;78.50;;;;;;4972106;28;20753;-80
2024/03/08 08:29:25;;;;;;;21.73;17.52;;;6.40;78.60;;;;;;4971282;28;20031;-92
2024/03/08 08:31:51;;;;;;;22.80;18.10;;;6.40;78.60;;;;;;4991305;28;20102;-91
2024/03/08 08:34:19;;;;;;;24.38;18.80;;;6.40;78.60;;;;;;4973105;28;20252;-80
2024/03/08 08:36:45;;;;;;;21.95;17.38;;;6.40;78.60;;;;;;4972386;28;20019;-79
2024/03/08 08:39:13;;;;;;;23.20;18.17;;;6.40;78.50;;;;;;4957705;28;20030;-80
2024/03/08 08:41:41;;;;;;;21.15;17.63;;;6.40;78.50;;;;;;4987147;28;20025;-79
2024/03/08 08:44:09;;;;;;;23.15;18.42;;;6.40;78.50;;;;;;4974802;28;20061;-92
2024/03/08 08:46:39;;;;;;;23.27;17.98;;;6.40;78.50;;;;;;4994272;28;20057;-91
2024/03/08 08:49:06;;;;;;;22.95;18.42;;;6.50;78.60;;;;;;4994742;28;20098;-93
2024/03/08 08:51:35;;;;;;;22.33;18.02;;;6.40;78.50;;;;;;4972386;28;20035;-92
2024/03/08 08:54:01;;;;;;;22.33;18.00;;;6.40;78.50;;;;;;4961249;28;20037;-93
2024/03/08 08:56:28;;;;;;;22.15;18.48;;;6.40;78.60;;;;;;4977044;28;20026;-79
2024/03/08 08:58:55;;;;;;;22.95;18.20;;;6.50;78.60;;;;;;4985677;28;20018;-79
2024/03/08 09:01:21;;;;;;;22.42;18.20;;;6.50;78.70;;;;;;4977877;28;20110;-93
2024/03/08 09:03:47;;;;;;;21.98;18.40;;;6.50;78.60;;;;;;4978135;28;20014;-88
2024/03/08 09:06:13;;;;;;;22.60;18.30;;;6.50;78.60;;;;;;4973618;28;20141;-92
2024/03/08 09:08:39;;;;;;;22.48;18.23;;;6.50;78.60;;;;;;4995040;28;20023;-80
2024/03/08 09:11:05;;;;;;;23.23;18.60;;;6.50;78.50;;;;;;4988704;28;20120;-93
2024/03/08 09:13:33;;;;;;;21.67;17.25;;;6.60;78.60;;;;;;4975299;28;20030;-79
2024/03/08 09:16:00;;;;;;;23.23;18.27;;;6.60;78.50;;;;;;4960498;28;20030;-94
2024/03/08 09:18:26;;;;;;;22.38;18.20;;;6.60;78.50;;;;;;4990329;28;20382;-94
2024/03/08 09:20:54;;;;;;;22.15;17.73;;;6.70;78.50;;;;;;4992931;28;20080;-94
2024/03/08 09:23:20;;;;;;;21.55;16.75;;;6.70;78.50;;;;;;4977381;28;20500;-80
2024/03/08 09:25:46;;;;;;;22.50;18.40;;;6.80;78.50;;;;;;4976673;28;20109;-93
2024/03/08 09:28:12;;;;;;;23.55;19.35;;;6.80;78.40;;;;;;4987685;28;20052;-93
2024/03/08 09:30:39;;;;;;;23.52;18.20;;;6.80;78.40;;;;;;4975946;28;20069;-80
2024/03/08 09:33:06;;;;;;;21.45;17.65;;;6.90;78.40;;;;;;4992973;28;20034;-94
2024/03/08 09:35:35;;;;;;;23.75;18.73;;;6.90;78.40;;;;;;4976496;28;20030;-94
2024/03/08 09:38:01;;;;;;;23.90;19.25;;;7.00;78.50;;;;;;4994633;28;20389;-92
2024/03/08 09:40:27;;;;;;;23.73;18.40;;;7.00;78.40;;;;;;4970689;28;21493;-91
2024/03/08 09:42:53;;;;;;;22.27;17.38;;;7.00;78.40;;;;;;4992556;28;20030;-80
2024/03/08 09:45:24;;;;;;;25.63;19.42;;;7.10;78.40;;;;;;4977550;28;20485;-80
2024/03/08 09:47:50;;;;;;;22.98;17.75;;;7.10;78.40;;;;;;4975201;28;20038;-93
2024/03/08 09:50:17;;;;;;;22.58;17.52;;;7.20;78.30;;;;;;4972179;28;20041;-80
2024/03/08 09:52:48;;;;;;;23.48;18.10;;;7.30;78.30;;;;;;4964211;28;20031;-92
2024/03/08 09:55:17;;;;;;;23.92;18.33;;;7.30;78.20;;;;;;4992483;28;20034;-80
2024/03/08 10:00:28;;;;;;;19.30;16.33;;;7.40;78.20;;;;;;4992508;28;20129;-94
2024/03/08 10:02:53;;;;;;;23.52;17.50;;;7.50;78.20;;;;;;4976494;28;20062;-91
2024/03/08 10:05:21;;;;;;;22.15;18.17;;;7.50;78.20;;;;;;4992598;28;20057;-80
2024/03/08 10:07:47;;;;;;;22.73;17.95;;;7.60;78.20;;;;;;4955546;28;20037;-92
2024/03/08 10:10:13;;;;;;;22.17;18.25;;;7.60;78.10;;;;;;4988762;28;20026;-80
2024/03/08 10:12:40;;;;;;;20.90;16.77;;;7.70;78.10;;;;;;4957351;28;20574;-80
2024/03/08 10:15:08;;;;;;;22.65;17.58;;;7.80;78.20;;;;;;4991634;28;20042;-80
2024/03/08 10:17:39;;;;;;;21.27;16.85;;;7.90;78.10;;;;;;4993525;28;20022;-93
2024/03/08 10:20:18;;;;;;;23.95;17.85;;;7.90;78.10;;;;;;4976812;28;20038;-80
2024/03/08 10:22:44;;;;;;;22.38;17.92;;;8.00;78.10;;;;;;4992462;28;20034;-80
2024/03/08 10:25:14;;;;;;;23.25;18.52;;;8.00;78.10;;;;;;4991659;28;20406;-80
2024/03/08 10:27:43;;;;;;;21.75;17.88;;;8.10;78.10;;;;;;4993312;28;20056;-95
2024/03/08 10:30:13;;;;;;;24.00;18.90;;;8.20;78.10;;;;;;4987634;28;20046;-94
2024/03/08 10:32:41;;;;;;;24.00;18.88;;;8.20;78.00;;;;;;4961265;28;20394;-80
2024/03/08 10:35:12;;;;;;;22.33;18.33;;;8.30;78.00;;;;;;4979010;28;20030;-95
2024/03/08 10:37:49;;;;;;;21.58;17.00;;;8.40;78.00;;;;;;4975887;28;20087;-93
2024/03/08 10:40:20;;;;;;;24.45;18.95;;;8.50;78.00;;;;;;4958808;28;20117;-80
2024/03/08 10:42:54;;;;;;;23.02;18.08;;;8.60;78.00;;;;;;4984748;28;20036;-91
2024/03/08 10:45:36;;;;;;;21.58;17.75;;;8.70;78.00;;;;;;4970772;28;20042;-93
2024/03/08 10:48:22;;;;;;;21.35;17.35;;;8.70;77.90;;;;;;4974621;28;20442;-92
2024/03/08 10:50:52;;;;;;;22.25;18.25;;;8.80;77.90;;;;;;4960467;28;20060;-92
2024/03/08 10:53:21;;;;;;;20.67;16.80;;;8.90;77.90;;;;;;4977905;28;20032;-91
2024/03/08 10:55:49;;;;;;;21.40;17.77;;;8.90;77.90;;;;;;4976286;28;20037;-79
2024/03/08 10:58:16;;;;;;;23.10;18.58;;;9.00;77.90;;;;;;4990652;28;20037;-92
2024/03/08 11:00:42;;;;;;;22.45;18.02;;;9.10;78.00;;;;;;4992002;28;20019;-80
2024/03/08 11:03:40;;;;;;;22.77;18.27;;;9.20;78.00;;;;;;4972226;28;20015;-80
2024/03/08 11:06:16;;;;;;;21.85;17.50;;;9.30;78.20;;;;;;4980595;28;20088;-92
2024/03/08 11:08:42;;;;;;;20.77;17.33;;;9.40;78.10;;;;;;4984053;28;20505;-79
2024/03/08 11:11:32;;;;;;;21.27;17.00;;;9.40;78.10;;;;;;4991028;28;20383;-80
2024/03/08 11:14:01;;;;;;;22.67;18.27;;;9.50;78.30;;;;;;4991456;28;20054;-93
2024/03/08 11:16:27;;;;;;;22.02;17.95;;;9.60;78.20;;;;;;4955845;28;20486;-79
2024/03/08 11:19:22;;;;;;;22.50;17.60;;;9.70;78.30;;;;;;4973529;28;20394;-79
2024/03/08 11:22:01;;;;;;;21.33;17.23;;;9.70;78.30;;;;;;4972182;28;20034;-80
2024/03/08 11:24:27;;;;;;;21.58;17.08;;;9.80;78.40;;;;;;4970045;28;20105;-79
2024/03/08 11:27:01;;;;;;;23.13;18.17;;;9.80;78.40;;;;;;4971820;28;20030;-80
2024/03/08 11:29:27;;;;;;;22.13;18.30;;;9.90;78.50;;;;;;4974789;28;20061;-93
2024/03/08 11:32:04;;;;;;;20.38;17.20;;;10.00;79.20;;;;;;4992663;28;20065;-89
2024/03/08 11:34:38;;;;;;;21.35;16.90;;;10.10;78.70;;;;;;4980387;28;20039;-80
2024/03/08 11:37:09;;;;;;;21.52;16.67;;;10.10;78.70;;;;;;4979708;28;20568;-81
2024/03/08 11:39:37;;;;;;;20.58;16.70;;;10.20;78.70;;;;;;4970572;28;20030;-82
2024/03/08 11:42:03;;;;;;;24.38;18.88;;;10.20;79.40;;;;;;4959904;28;20100;-80
2024/03/08 11:44:31;;;;;;;21.83;17.45;;;10.30;78.80;;;;;;4974768;28;20022;-80
2024/03/08 11:46:57;;;;;;;21.98;17.60;;;10.30;78.80;;;;;;4984856;28;20025;-88
2024/03/08 11:49:23;;;;;;;22.10;17.55;;;10.40;78.90;;;;;;4989795;28;20030;-87
2024/03/08 11:51:53;;;;;;;21.17;17.83;;;10.50;79.00;;;;;;4975971;28;20026;-87
2024/03/08 11:54:20;;;;;;;20.63;17.45;;;10.50;79.00;;;;;;4972912;28;20066;-88
2024/03/08 11:56:47;;;;;;;22.27;16.20;;;10.60;79.10;;;;;;4958053;28;20010;-91
2024/03/08 11:59:14;;;;;;;23.17;17.75;;;10.60;79.10;;;;;;4979134;28;20022;-80
2024/03/08 12:01:40;;;;;;;20.95;16.73;;;10.70;79.20;;;;;;4973427;28;20019;-87
2024/03/08 12:04:06;;;;;;;19.00;15.75;;;10.70;79.20;;;;;;4990428;28;20037;-80
2024/03/08 12:06:41;;;;;;;19.05;15.82;;;10.80;79.40;;;;;;4991053;28;20023;-95
2024/03/08 12:09:13;;;;;;;19.08;16.15;;;10.90;79.50;;;;;;4983616;28;20034;-78
2024/03/08 12:11:39;;;;;;;19.98;16.05;;;10.90;79.50;;;;;;4977247;28;20049;-79
2024/03/08 12:14:06;;;;;;;21.52;16.58;;;10.90;79.40;;;;;;4963058;28;20031;-80
2024/03/08 12:16:32;;;;;;;20.85;16.52;;;11.00;79.50;;;;;;4990861;28;20029;-82
2024/03/08 12:18:58;;;;;;;19.00;16.08;;;11.00;80.10;;;;;;4989814;28;20030;-80
2024/03/08 12:21:29;;;;;;;21.05;16.45;;;11.10;79.60;;;;;;4971678;28;20039;-79
2024/03/08 12:24:08;;;;;;;19.20;15.88;;;11.10;79.60;;;;;;4986423;28;20092;-92
2024/03/08 12:26:36;;;;;;;19.70;15.88;;;11.20;79.70;;;;;;4974824;28;20045;-92
2024/03/08 12:29:27;;;;;;;21.27;17.10;;;11.30;79.60;;;;;;4994533;28;20041;-80
2024/03/08 12:31:58;;;;;;;18.67;15.95;;;11.30;79.70;;;;;;4985488;28;20097;-80
2024/03/08 12:34:24;;;;;;;18.92;16.02;;;11.30;79.60;;;;;;4993826;28;20033;-79
2024/03/08 12:36:53;;;;;;;20.55;16.73;;;11.40;79.60;;;;;;4966997;28;20104;-80
2024/03/08 12:39:26;;;;;;;20.88;17.20;;;11.40;79.60;;;;;;4991551;28;20034;-81
2024/03/08 12:41:59;;;;;;;20.65;16.80;;;11.50;79.70;;;;;;4995505;28;20747;-82
2024/03/08 12:44:25;;;;;;;20.85;17.15;;;11.60;79.70;;;;;;4991967;28;20482;-81